sensor_id;sensor_type;location;lat;lon;timestamp;P1;durP1;ratioP1;P2;durP2;ratioP2
44143;SDS011;68165;51.920;4.492;2023-02-28T00:00:06;5.78;;;1.60;;
44143;SDS011;68165;51.920;4.492;2023-02-28T00:02:40;6.25;;;2.40;;
44143;SDS011;68165;51.920;4.492;2023-02-28T00:05:06;4.55;;;1.77;;
44143;SDS011;68165;51.920;4.492;2023-02-28T00:07:33;7.25;;;2.38;;
44143;SDS011;68165;51.920;4.492;2023-02-28T00:09:58;5.50;;;1.90;;
44143;SDS011;68165;51.920;4.492;2023-02-28T00:12:25;6.63;;;1.67;;
44143;SDS011;68165;51.920;4.492;2023-02-28T00:14:51;7.47;;;1.80;;
44143;SDS011;68165;51.920;4.492;2023-02-28T00:17:16;4.00;;;1.45;;
44143;SDS011;68165;51.920;4.492;2023-02-28T00:19:50;5.90;;;1.90;;
44143;SDS011;68165;51.920;4.492;2023-02-28T00:22:17;6.68;;;1.88;;
44143;SDS011;68165;51.920;4.492;2023-02-28T00:24:44;4.05;;;1.67;;
44143;SDS011;68165;51.920;4.492;2023-02-28T00:27:10;4.00;;;1.50;;
44143;SDS011;68165;51.920;4.492;2023-02-28T00:29:36;6.28;;;1.85;;
44143;SDS011;68165;51.920;4.492;2023-02-28T00:32:01;3.97;;;1.83;;
44143;SDS011;68165;51.920;4.492;2023-02-28T00:34:27;7.28;;;2.08;;
44143;SDS011;68165;51.920;4.492;2023-02-28T00:36:53;6.93;;;1.40;;
44143;SDS011;68165;51.920;4.492;2023-02-28T00:39:18;5.63;;;1.67;;
44143;SDS011;68165;51.920;4.492;2023-02-28T00:41:43;4.43;;;1.70;;
44143;SDS011;68165;51.920;4.492;2023-02-28T00:44:09;4.40;;;1.77;;
44143;SDS011;68165;51.920;4.492;2023-02-28T00:46:34;3.72;;;1.52;;
44143;SDS011;68165;51.920;4.492;2023-02-28T00:49:00;4.30;;;1.85;;
44143;SDS011;68165;51.920;4.492;2023-02-28T00:51:25;4.93;;;1.90;;
44143;SDS011;68165;51.920;4.492;2023-02-28T00:53:51;3.70;;;1.60;;
44143;SDS011;68165;51.920;4.492;2023-02-28T00:56:17;4.43;;;1.50;;
44143;SDS011;68165;51.920;4.492;2023-02-28T00:58:43;5.38;;;1.50;;
44143;SDS011;68165;51.920;4.492;2023-02-28T01:01:08;4.68;;;1.73;;
44143;SDS011;68165;51.920;4.492;2023-02-28T01:03:33;6.07;;;1.73;;
44143;SDS011;68165;51.920;4.492;2023-02-28T01:05:59;4.28;;;1.60;;
44143;SDS011;68165;51.920;4.492;2023-02-28T01:08:24;6.90;;;2.08;;
44143;SDS011;68165;51.920;4.492;2023-02-28T01:10:51;3.35;;;1.85;;
44143;SDS011;68165;51.920;4.492;2023-02-28T01:13:17;7.63;;;2.00;;
44143;SDS011;68165;51.920;4.492;2023-02-28T01:15:43;4.30;;;1.80;;
44143;SDS011;68165;51.920;4.492;2023-02-28T01:18:13;10.77;;;2.13;;
44143;SDS011;68165;51.920;4.492;2023-02-28T01:20:39;2.85;;;1.50;;
44143;SDS011;68165;51.920;4.492;2023-02-28T01:23:04;5.80;;;2.00;;
44143;SDS011;68165;51.920;4.492;2023-02-28T01:25:30;3.10;;;1.40;;
44143;SDS011;68165;51.920;4.492;2023-02-28T01:27:55;3.08;;;1.35;;
44143;SDS011;68165;51.920;4.492;2023-02-28T01:30:22;16.60;;;1.95;;
44143;SDS011;68165;51.920;4.492;2023-02-28T01:32:47;5.15;;;1.52;;
44143;SDS011;68165;51.920;4.492;2023-02-28T01:35:13;5.45;;;1.90;;
44143;SDS011;68165;51.920;4.492;2023-02-28T01:37:38;4.55;;;1.65;;
44143;SDS011;68165;51.920;4.492;2023-02-28T01:40:04;5.07;;;1.50;;
44143;SDS011;68165;51.920;4.492;2023-02-28T01:42:30;3.63;;;1.33;;
44143;SDS011;68165;51.920;4.492;2023-02-28T01:47:36;4.22;;;1.77;;
44143;SDS011;68165;51.920;4.492;2023-02-28T01:50:09;7.07;;;1.70;;
44143;SDS011;68165;51.920;4.492;2023-02-28T01:52:39;5.35;;;1.42;;
44143;SDS011;68165;51.920;4.492;2023-02-28T01:55:05;6.80;;;1.65;;
44143;SDS011;68165;51.920;4.492;2023-02-28T01:57:33;4.40;;;1.40;;
44143;SDS011;68165;51.920;4.492;2023-02-28T02:00:24;4.40;;;1.65;;
44143;SDS011;68165;51.920;4.492;2023-02-28T02:02:53;5.15;;;1.65;;
44143;SDS011;68165;51.920;4.492;2023-02-28T02:05:21;5.47;;;1.48;;
44143;SDS011;68165;51.920;4.492;2023-02-28T02:07:54;4.80;;;1.92;;
44143;SDS011;68165;51.920;4.492;2023-02-28T02:10:24;2.90;;;1.40;;
44143;SDS011;68165;51.920;4.492;2023-02-28T02:12:59;5.45;;;2.03;;
44143;SDS011;68165;51.920;4.492;2023-02-28T02:17:56;4.20;;;1.35;;
44143;SDS011;68165;51.920;4.492;2023-02-28T02:35:20;3.30;;;1.73;;
44143;SDS011;68165;51.920;4.492;2023-02-28T02:43:29;6.28;;;1.77;;
44143;SDS011;68165;51.920;4.492;2023-02-28T02:48:36;5.10;;;1.58;;
44143;SDS011;68165;51.920;4.492;2023-02-28T02:51:23;7.95;;;2.17;;
44143;SDS011;68165;51.920;4.492;2023-02-28T02:53:55;5.25;;;1.52;;
44143;SDS011;68165;51.920;4.492;2023-02-28T02:56:26;4.22;;;1.60;;
44143;SDS011;68165;51.920;4.492;2023-02-28T02:58:57;7.45;;;1.83;;
44143;SDS011;68165;51.920;4.492;2023-02-28T03:01:27;3.55;;;1.33;;
44143;SDS011;68165;51.920;4.492;2023-02-28T03:03:57;4.32;;;1.50;;
44143;SDS011;68165;51.920;4.492;2023-02-28T03:06:25;6.65;;;2.10;;
44143;SDS011;68165;51.920;4.492;2023-02-28T03:08:51;4.53;;;1.70;;
44143;SDS011;68165;51.920;4.492;2023-02-28T03:11:16;6.60;;;1.90;;
44143;SDS011;68165;51.920;4.492;2023-02-28T03:13:44;7.95;;;1.95;;
44143;SDS011;68165;51.920;4.492;2023-02-28T03:25:09;7.35;;;2.03;;
44143;SDS011;68165;51.920;4.492;2023-02-28T03:33:14;8.02;;;2.58;;
44143;SDS011;68165;51.920;4.492;2023-02-28T03:35:52;4.95;;;1.80;;
44143;SDS011;68165;51.920;4.492;2023-02-28T03:38:44;6.75;;;1.85;;
44143;SDS011;68165;51.920;4.492;2023-02-28T03:41:17;5.75;;;2.08;;
44143;SDS011;68165;51.920;4.492;2023-02-28T03:43:49;7.47;;;2.10;;
44143;SDS011;68165;51.920;4.492;2023-02-28T03:46:20;3.70;;;1.73;;
44143;SDS011;68165;51.920;4.492;2023-02-28T03:51:26;4.60;;;1.95;;
44143;SDS011;68165;51.920;4.492;2023-02-28T03:53:54;5.75;;;2.20;;
44143;SDS011;68165;51.920;4.492;2023-02-28T03:56:27;5.53;;;2.20;;
44143;SDS011;68165;51.920;4.492;2023-02-28T03:59:00;7.30;;;2.53;;
44143;SDS011;68165;51.920;4.492;2023-02-28T04:01:38;5.88;;;1.80;;
44143;SDS011;68165;51.920;4.492;2023-02-28T04:04:06;4.35;;;1.70;;
44143;SDS011;68165;51.920;4.492;2023-02-28T04:06:33;5.07;;;2.13;;
44143;SDS011;68165;51.920;4.492;2023-02-28T04:08:59;8.02;;;2.22;;
44143;SDS011;68165;51.920;4.492;2023-02-28T04:14:20;7.55;;;2.70;;
44143;SDS011;68165;51.920;4.492;2023-02-28T04:16:46;5.22;;;2.30;;
44143;SDS011;68165;51.920;4.492;2023-02-28T04:19:12;7.53;;;2.42;;
44143;SDS011;68165;51.920;4.492;2023-02-28T04:21:39;7.45;;;2.55;;
44143;SDS011;68165;51.920;4.492;2023-02-28T04:24:10;7.47;;;1.98;;
44143;SDS011;68165;51.920;4.492;2023-02-28T04:26:45;6.82;;;2.30;;
44143;SDS011;68165;51.920;4.492;2023-02-28T04:29:12;6.60;;;2.55;;
44143;SDS011;68165;51.920;4.492;2023-02-28T04:31:39;6.75;;;2.50;;
44143;SDS011;68165;51.920;4.492;2023-02-28T04:34:05;3.97;;;2.15;;
44143;SDS011;68165;51.920;4.492;2023-02-28T04:36:31;8.98;;;2.88;;
44143;SDS011;68165;51.920;4.492;2023-02-28T04:38:57;6.78;;;2.70;;
44143;SDS011;68165;51.920;4.492;2023-02-28T04:41:22;7.15;;;2.80;;
44143;SDS011;68165;51.920;4.492;2023-02-28T04:43:48;7.70;;;3.03;;
44143;SDS011;68165;51.920;4.492;2023-02-28T04:46:15;9.70;;;3.03;;
44143;SDS011;68165;51.920;4.492;2023-02-28T04:48:42;8.52;;;3.00;;
44143;SDS011;68165;51.920;4.492;2023-02-28T04:51:09;6.82;;;3.10;;
44143;SDS011;68165;51.920;4.492;2023-02-28T04:53:37;7.65;;;3.30;;
44143;SDS011;68165;51.920;4.492;2023-02-28T04:56:04;7.68;;;3.45;;
44143;SDS011;68165;51.920;4.492;2023-02-28T04:58:31;5.82;;;2.63;;
44143;SDS011;68165;51.920;4.492;2023-02-28T05:01:04;11.77;;;3.30;;
44143;SDS011;68165;51.920;4.492;2023-02-28T05:03:37;7.22;;;3.08;;
44143;SDS011;68165;51.920;4.492;2023-02-28T05:06:07;8.70;;;3.20;;
44143;SDS011;68165;51.920;4.492;2023-02-28T05:08:33;14.48;;;4.03;;
44143;SDS011;68165;51.920;4.492;2023-02-28T05:10:59;6.82;;;2.90;;
44143;SDS011;68165;51.920;4.492;2023-02-28T05:13:25;8.32;;;3.08;;
44143;SDS011;68165;51.920;4.492;2023-02-28T05:15:51;11.70;;;3.22;;
44143;SDS011;68165;51.920;4.492;2023-02-28T05:18:18;7.80;;;4.15;;
44143;SDS011;68165;51.920;4.492;2023-02-28T05:20:43;8.90;;;3.58;;
44143;SDS011;68165;51.920;4.492;2023-02-28T05:23:10;6.80;;;3.70;;
44143;SDS011;68165;51.920;4.492;2023-02-28T05:25:37;7.78;;;3.90;;
44143;SDS011;68165;51.920;4.492;2023-02-28T05:28:04;10.60;;;4.20;;
44143;SDS011;68165;51.920;4.492;2023-02-28T05:30:30;7.78;;;3.92;;
44143;SDS011;68165;51.920;4.492;2023-02-28T05:32:56;8.50;;;4.53;;
44143;SDS011;68165;51.920;4.492;2023-02-28T05:35:22;8.77;;;3.58;;
44143;SDS011;68165;51.920;4.492;2023-02-28T05:37:48;8.73;;;4.40;;
44143;SDS011;68165;51.920;4.492;2023-02-28T05:40:13;7.68;;;3.63;;
44143;SDS011;68165;51.920;4.492;2023-02-28T05:42:40;12.68;;;4.07;;
44143;SDS011;68165;51.920;4.492;2023-02-28T05:45:06;10.07;;;3.85;;
44143;SDS011;68165;51.920;4.492;2023-02-28T05:47:33;7.03;;;3.67;;
44143;SDS011;68165;51.920;4.492;2023-02-28T05:49:59;7.93;;;3.88;;
44143;SDS011;68165;51.920;4.492;2023-02-28T05:52:25;11.60;;;3.55;;
44143;SDS011;68165;51.920;4.492;2023-02-28T05:54:50;6.88;;;3.45;;
44143;SDS011;68165;51.920;4.492;2023-02-28T05:57:16;7.63;;;3.70;;
44143;SDS011;68165;51.920;4.492;2023-02-28T05:59:41;6.55;;;3.45;;
44143;SDS011;68165;51.920;4.492;2023-02-28T06:02:14;11.68;;;3.13;;
44143;SDS011;68165;51.920;4.492;2023-02-28T06:04:40;6.07;;;2.72;;
44143;SDS011;68165;51.920;4.492;2023-02-28T06:07:07;8.43;;;2.95;;
44143;SDS011;68165;51.920;4.492;2023-02-28T06:09:33;7.05;;;3.28;;
44143;SDS011;68165;51.920;4.492;2023-02-28T06:11:58;8.23;;;3.20;;
44143;SDS011;68165;51.920;4.492;2023-02-28T06:14:30;6.88;;;3.30;;
44143;SDS011;68165;51.920;4.492;2023-02-28T06:16:56;9.73;;;3.83;;
44143;SDS011;68165;51.920;4.492;2023-02-28T06:19:21;6.78;;;3.08;;
44143;SDS011;68165;51.920;4.492;2023-02-28T06:21:48;6.28;;;2.83;;
44143;SDS011;68165;51.920;4.492;2023-02-28T06:24:18;5.90;;;3.05;;
44143;SDS011;68165;51.920;4.492;2023-02-28T06:26:48;9.13;;;2.30;;
44143;SDS011;68165;51.920;4.492;2023-02-28T06:29:13;6.30;;;2.50;;
44143;SDS011;68165;51.920;4.492;2023-02-28T06:31:43;5.70;;;2.38;;
44143;SDS011;68165;51.920;4.492;2023-02-28T06:34:11;8.73;;;2.65;;
44143;SDS011;68165;51.920;4.492;2023-02-28T06:36:38;5.00;;;2.15;;
44143;SDS011;68165;51.920;4.492;2023-02-28T06:39:04;5.53;;;2.20;;
44143;SDS011;68165;51.920;4.492;2023-02-28T06:41:30;8.50;;;2.50;;
44143;SDS011;68165;51.920;4.492;2023-02-28T06:43:55;3.45;;;1.92;;
44143;SDS011;68165;51.920;4.492;2023-02-28T06:46:21;4.63;;;2.30;;
44143;SDS011;68165;51.920;4.492;2023-02-28T06:48:47;5.63;;;2.50;;
44143;SDS011;68165;51.920;4.492;2023-02-28T06:51:14;7.60;;;2.78;;
44143;SDS011;68165;51.920;4.492;2023-02-28T06:53:41;13.70;;;3.40;;
44143;SDS011;68165;51.920;4.492;2023-02-28T06:56:11;6.75;;;3.03;;
44143;SDS011;68165;51.920;4.492;2023-02-28T06:58:39;7.18;;;2.53;;
44143;SDS011;68165;51.920;4.492;2023-02-28T07:01:05;9.20;;;3.15;;
44143;SDS011;68165;51.920;4.492;2023-02-28T07:03:34;7.65;;;3.10;;
44143;SDS011;68165;51.920;4.492;2023-02-28T07:06:00;6.97;;;3.25;;
44143;SDS011;68165;51.920;4.492;2023-02-28T07:08:26;7.63;;;3.33;;
44143;SDS011;68165;51.920;4.492;2023-02-28T07:10:55;8.75;;;3.03;;
44143;SDS011;68165;51.920;4.492;2023-02-28T07:13:22;6.63;;;2.63;;
44143;SDS011;68165;51.920;4.492;2023-02-28T07:18:21;4.50;;;2.03;;
44143;SDS011;68165;51.920;4.492;2023-02-28T07:20:49;6.80;;;2.80;;
44143;SDS011;68165;51.920;4.492;2023-02-28T07:23:14;6.35;;;2.80;;
44143;SDS011;68165;51.920;4.492;2023-02-28T07:25:40;6.90;;;3.08;;
44143;SDS011;68165;51.920;4.492;2023-02-28T07:28:07;7.38;;;2.92;;
44143;SDS011;68165;51.920;4.492;2023-02-28T07:30:32;7.00;;;2.58;;
44143;SDS011;68165;51.920;4.492;2023-02-28T07:32:59;8.05;;;2.40;;
44143;SDS011;68165;51.920;4.492;2023-02-28T08:47:48;7.32;;;3.67;;
44143;SDS011;68165;51.920;4.492;2023-02-28T08:50:13;10.93;;;4.35;;
44143;SDS011;68165;51.920;4.492;2023-02-28T08:52:41;8.60;;;4.15;;
44143;SDS011;68165;51.920;4.492;2023-02-28T08:55:08;9.52;;;3.65;;
44143;SDS011;68165;51.920;4.492;2023-02-28T08:57:34;10.50;;;4.35;;
44143;SDS011;68165;51.920;4.492;2023-02-28T09:00:00;11.93;;;3.60;;
44143;SDS011;68165;51.920;4.492;2023-02-28T09:02:29;9.20;;;3.85;;
44143;SDS011;68165;51.920;4.492;2023-02-28T09:04:56;9.00;;;3.90;;
44143;SDS011;68165;51.920;4.492;2023-02-28T09:07:21;7.82;;;3.60;;
44143;SDS011;68165;51.920;4.492;2023-02-28T09:09:47;13.20;;;3.45;;
44143;SDS011;68165;51.920;4.492;2023-02-28T09:12:26;6.97;;;3.25;;
44143;SDS011;68165;51.920;4.492;2023-02-28T09:14:52;7.97;;;4.28;;
44143;SDS011;68165;51.920;4.492;2023-02-28T09:17:18;8.77;;;4.30;;
44143;SDS011;68165;51.920;4.492;2023-02-28T09:19:44;7.35;;;3.60;;
44143;SDS011;68165;51.920;4.492;2023-02-28T09:22:10;10.05;;;3.97;;
44143;SDS011;68165;51.920;4.492;2023-02-28T09:24:36;12.88;;;4.22;;
44143;SDS011;68165;51.920;4.492;2023-02-28T09:27:02;9.57;;;3.90;;
44143;SDS011;68165;51.920;4.492;2023-02-28T09:29:28;8.90;;;3.60;;
44143;SDS011;68165;51.920;4.492;2023-02-28T09:31:53;9.13;;;3.90;;
44143;SDS011;68165;51.920;4.492;2023-02-28T09:34:18;10.23;;;3.47;;
44143;SDS011;68165;51.920;4.492;2023-02-28T09:36:44;8.10;;;3.35;;
44143;SDS011;68165;51.920;4.492;2023-02-28T09:39:10;8.25;;;3.90;;
44143;SDS011;68165;51.920;4.492;2023-02-28T09:41:38;7.65;;;3.30;;
44143;SDS011;68165;51.920;4.492;2023-02-28T09:44:13;7.57;;;2.72;;
44143;SDS011;68165;51.920;4.492;2023-02-28T09:46:46;5.45;;;2.65;;
44143;SDS011;68165;51.920;4.492;2023-02-28T09:49:17;7.10;;;3.33;;
44143;SDS011;68165;51.920;4.492;2023-02-28T09:54:29;6.82;;;2.78;;
44143;SDS011;68165;51.920;4.492;2023-02-28T10:12:45;8.18;;;3.13;;
44143;SDS011;68165;51.920;4.492;2023-02-28T10:15:14;11.25;;;4.40;;
44143;SDS011;68165;51.920;4.492;2023-02-28T10:17:42;5.80;;;2.85;;
44143;SDS011;68165;51.920;4.492;2023-02-28T10:20:11;5.25;;;2.75;;
44143;SDS011;68165;51.920;4.492;2023-02-28T10:25:21;9.27;;;3.00;;
44143;SDS011;68165;51.920;4.492;2023-02-28T10:27:49;8.13;;;3.17;;
44143;SDS011;68165;51.920;4.492;2023-02-28T10:30:18;5.18;;;2.78;;
44143;SDS011;68165;51.920;4.492;2023-02-28T10:32:47;6.43;;;2.60;;
44143;SDS011;68165;51.920;4.492;2023-02-28T10:35:17;6.15;;;2.70;;
44143;SDS011;68165;51.920;4.492;2023-02-28T10:37:46;5.78;;;2.88;;
44143;SDS011;68165;51.920;4.492;2023-02-28T10:43:00;6.82;;;2.40;;
44143;SDS011;68165;51.920;4.492;2023-02-28T10:45:31;9.25;;;2.40;;
44143;SDS011;68165;51.920;4.492;2023-02-28T10:48:04;5.95;;;2.22;;
44143;SDS011;68165;51.920;4.492;2023-02-28T10:56:00;5.38;;;2.17;;
44143;SDS011;68165;51.920;4.492;2023-02-28T11:03:51;4.93;;;2.33;;
44143;SDS011;68165;51.920;4.492;2023-02-28T11:06:29;3.55;;;1.90;;
44143;SDS011;68165;51.920;4.492;2023-02-28T11:09:00;5.13;;;1.85;;
44143;SDS011;68165;51.920;4.492;2023-02-28T11:11:30;4.63;;;2.00;;
44143;SDS011;68165;51.920;4.492;2023-02-28T11:14:16;7.75;;;2.35;;
44143;SDS011;68165;51.920;4.492;2023-02-28T11:16:46;4.50;;;1.85;;
44143;SDS011;68165;51.920;4.492;2023-02-28T11:19:18;5.50;;;1.55;;
44143;SDS011;68165;51.920;4.492;2023-02-28T11:21:50;5.78;;;1.65;;
44143;SDS011;68165;51.920;4.492;2023-02-28T11:26:53;4.13;;;1.58;;
44143;SDS011;68165;51.920;4.492;2023-02-28T11:34:33;3.25;;;1.48;;
44143;SDS011;68165;51.920;4.492;2023-02-28T11:37:00;2.58;;;1.23;;
44143;SDS011;68165;51.920;4.492;2023-02-28T11:39:30;2.75;;;1.52;;
44143;SDS011;68165;51.920;4.492;2023-02-28T11:47:00;3.22;;;1.30;;
44143;SDS011;68165;51.920;4.492;2023-02-28T11:52:55;3.60;;;1.45;;
44143;SDS011;68165;51.920;4.492;2023-02-28T11:55:45;4.07;;;1.75;;
44143;SDS011;68165;51.920;4.492;2023-02-28T12:04:11;5.15;;;1.70;;
44143;SDS011;68165;51.920;4.492;2023-02-28T12:07:18;4.28;;;2.08;;
44143;SDS011;68165;51.920;4.492;2023-02-28T12:24:07;3.05;;;1.52;;
44143;SDS011;68165;51.920;4.492;2023-02-28T12:26:39;2.45;;;1.10;;
44143;SDS011;68165;51.920;4.492;2023-02-28T12:31:40;3.17;;;1.55;;
44143;SDS011;68165;51.920;4.492;2023-02-28T12:34:16;3.05;;;1.55;;
44143;SDS011;68165;51.920;4.492;2023-02-28T12:36:47;3.15;;;1.58;;
44143;SDS011;68165;51.920;4.492;2023-02-28T12:41:48;3.53;;;1.35;;
44143;SDS011;68165;51.920;4.492;2023-02-28T12:44:30;3.88;;;1.50;;
44143;SDS011;68165;51.920;4.492;2023-02-28T12:47:01;3.17;;;1.33;;
44143;SDS011;68165;51.920;4.492;2023-02-28T12:49:34;4.32;;;1.60;;
44143;SDS011;68165;51.920;4.492;2023-02-28T12:52:18;4.65;;;1.50;;
44143;SDS011;68165;51.920;4.492;2023-02-28T12:58:08;3.17;;;1.55;;
44143;SDS011;68165;51.920;4.492;2023-02-28T13:00:45;5.20;;;1.95;;
44143;SDS011;68165;51.920;4.492;2023-02-28T13:04:19;3.60;;;1.50;;
44143;SDS011;68165;51.920;4.492;2023-02-28T13:09:11;3.55;;;1.40;;
44143;SDS011;68165;51.920;4.492;2023-02-28T13:11:47;3.63;;;1.67;;
44143;SDS011;68165;51.920;4.492;2023-02-28T13:17:02;2.65;;;1.23;;
44143;SDS011;68165;51.920;4.492;2023-02-28T13:22:10;3.95;;;1.35;;
44143;SDS011;68165;51.920;4.492;2023-02-28T13:27:24;4.10;;;1.55;;
44143;SDS011;68165;51.920;4.492;2023-02-28T13:33:19;2.95;;;1.60;;
44143;SDS011;68165;51.920;4.492;2023-02-28T13:38:57;2.88;;;1.50;;
44143;SDS011;68165;51.920;4.492;2023-02-28T13:41:49;4.10;;;1.50;;
44143;SDS011;68165;51.920;4.492;2023-02-28T13:44:19;4.25;;;1.80;;
44143;SDS011;68165;51.920;4.492;2023-02-28T13:54:56;5.63;;;1.73;;
44143;SDS011;68165;51.920;4.492;2023-02-28T14:08:45;3.20;;;1.63;;
44143;SDS011;68165;51.920;4.492;2023-02-28T14:11:26;4.97;;;1.90;;
44143;SDS011;68165;51.920;4.492;2023-02-28T14:13:58;3.08;;;1.60;;
44143;SDS011;68165;51.920;4.492;2023-02-28T14:16:26;3.38;;;1.25;;
44143;SDS011;68165;51.920;4.492;2023-02-28T14:18:58;2.90;;;1.58;;
44143;SDS011;68165;51.920;4.492;2023-02-28T14:21:31;2.80;;;1.42;;
44143;SDS011;68165;51.920;4.492;2023-02-28T14:26:37;3.00;;;1.70;;
44143;SDS011;68165;51.920;4.492;2023-02-28T14:32:22;5.15;;;2.00;;
44143;SDS011;68165;51.920;4.492;2023-02-28T14:37:42;3.50;;;1.90;;
44143;SDS011;68165;51.920;4.492;2023-02-28T14:40:43;4.53;;;1.88;;
44143;SDS011;68165;51.920;4.492;2023-02-28T14:43:05;5.40;;;1.73;;
44143;SDS011;68165;51.920;4.492;2023-02-28T14:45:43;4.35;;;1.70;;
44143;SDS011;68165;51.920;4.492;2023-02-28T15:19:23;4.43;;;1.67;;
44143;SDS011;68165;51.920;4.492;2023-02-28T15:21:59;2.72;;;1.40;;
44143;SDS011;68165;51.920;4.492;2023-02-28T15:24:37;3.05;;;1.38;;
44143;SDS011;68165;51.920;4.492;2023-02-28T15:29:45;2.80;;;1.60;;
44143;SDS011;68165;51.920;4.492;2023-02-28T15:32:24;4.43;;;1.63;;
44143;SDS011;68165;51.920;4.492;2023-02-28T15:34:51;4.93;;;1.83;;
44143;SDS011;68165;51.920;4.492;2023-02-28T15:39:58;3.17;;;1.77;;
44143;SDS011;68165;51.920;4.492;2023-02-28T15:42:59;3.35;;;1.67;;
44143;SDS011;68165;51.920;4.492;2023-02-28T15:45:32;3.70;;;1.85;;
44143;SDS011;68165;51.920;4.492;2023-02-28T15:48:04;4.57;;;1.60;;
44143;SDS011;68165;51.920;4.492;2023-02-28T15:50:30;5.00;;;1.95;;
44143;SDS011;68165;51.920;4.492;2023-02-28T15:52:56;5.20;;;2.33;;
44143;SDS011;68165;51.920;4.492;2023-02-28T15:55:23;2.55;;;1.60;;
44143;SDS011;68165;51.920;4.492;2023-02-28T15:57:53;4.55;;;1.58;;
44143;SDS011;68165;51.920;4.492;2023-02-28T16:00:24;3.67;;;1.60;;
44143;SDS011;68165;51.920;4.492;2023-02-28T16:02:51;3.75;;;1.60;;
44143;SDS011;68165;51.920;4.492;2023-02-28T16:10:27;3.80;;;1.50;;
44143;SDS011;68165;51.920;4.492;2023-02-28T16:12:54;4.68;;;1.60;;
44143;SDS011;68165;51.920;4.492;2023-02-28T16:15:22;5.43;;;1.70;;
44143;SDS011;68165;51.920;4.492;2023-02-28T16:17:50;3.70;;;1.45;;
44143;SDS011;68165;51.920;4.492;2023-02-28T16:20:21;5.93;;;2.20;;
44143;SDS011;68165;51.920;4.492;2023-02-28T16:22:48;3.83;;;1.83;;
44143;SDS011;68165;51.920;4.492;2023-02-28T16:25:15;3.60;;;1.80;;
44143;SDS011;68165;51.920;4.492;2023-02-28T16:27:42;1.77;;;1.20;;
44143;SDS011;68165;51.920;4.492;2023-02-28T16:30:15;3.55;;;1.80;;
44143;SDS011;68165;51.920;4.492;2023-02-28T16:32:44;2.78;;;1.52;;
44143;SDS011;68165;51.920;4.492;2023-02-28T16:35:10;3.60;;;2.03;;
44143;SDS011;68165;51.920;4.492;2023-02-28T16:42:45;4.72;;;2.00;;
44143;SDS011;68165;51.920;4.492;2023-02-28T16:45:23;4.88;;;2.08;;
44143;SDS011;68165;51.920;4.492;2023-02-28T16:47:51;5.32;;;2.42;;
44143;SDS011;68165;51.920;4.492;2023-02-28T16:52:51;5.85;;;1.90;;
44143;SDS011;68165;51.920;4.492;2023-02-28T16:55:17;6.47;;;2.88;;
44143;SDS011;68165;51.920;4.492;2023-02-28T16:57:44;6.55;;;2.40;;
44143;SDS011;68165;51.920;4.492;2023-02-28T17:00:17;6.25;;;2.97;;
44143;SDS011;68165;51.920;4.492;2023-02-28T17:02:43;5.35;;;2.20;;
44143;SDS011;68165;51.920;4.492;2023-02-28T17:05:10;5.05;;;2.10;;
44143;SDS011;68165;51.920;4.492;2023-02-28T17:07:39;6.55;;;2.30;;
44143;SDS011;68165;51.920;4.492;2023-02-28T17:10:11;4.38;;;2.20;;
44143;SDS011;68165;51.920;4.492;2023-02-28T17:12:43;6.72;;;2.50;;
44143;SDS011;68165;51.920;4.492;2023-02-28T17:17:44;5.90;;;2.45;;
44143;SDS011;68165;51.920;4.492;2023-02-28T17:25:32;6.47;;;2.67;;
44143;SDS011;68165;51.920;4.492;2023-02-28T17:30:35;4.78;;;2.20;;
44143;SDS011;68165;51.920;4.492;2023-02-28T17:38:14;7.50;;;2.50;;
44143;SDS011;68165;51.920;4.492;2023-02-28T17:40:41;7.22;;;2.72;;
44143;SDS011;68165;51.920;4.492;2023-02-28T17:43:07;8.95;;;3.13;;
44143;SDS011;68165;51.920;4.492;2023-02-28T17:45:32;6.45;;;3.10;;
44143;SDS011;68165;51.920;4.492;2023-02-28T17:47:59;9.48;;;3.33;;
44143;SDS011;68165;51.920;4.492;2023-02-28T17:50:25;6.55;;;3.00;;
44143;SDS011;68165;51.920;4.492;2023-02-28T17:52:51;7.68;;;2.72;;
44143;SDS011;68165;51.920;4.492;2023-02-28T17:55:17;5.38;;;2.85;;
44143;SDS011;68165;51.920;4.492;2023-02-28T17:57:44;6.10;;;3.00;;
44143;SDS011;68165;51.920;4.492;2023-02-28T18:00:11;5.15;;;2.80;;
44143;SDS011;68165;51.920;4.492;2023-02-28T18:02:38;8.20;;;3.38;;
44143;SDS011;68165;51.920;4.492;2023-02-28T18:05:04;7.15;;;3.33;;
44143;SDS011;68165;51.920;4.492;2023-02-28T18:07:30;5.68;;;2.70;;
44143;SDS011;68165;51.920;4.492;2023-02-28T18:15:06;8.48;;;3.20;;
44143;SDS011;68165;51.920;4.492;2023-02-28T18:43:24;7.60;;;2.47;;
44143;SDS011;68165;51.920;4.492;2023-02-28T18:45:50;5.88;;;2.60;;
44143;SDS011;68165;51.920;4.492;2023-02-28T18:48:15;8.07;;;3.17;;
44143;SDS011;68165;51.920;4.492;2023-02-28T18:50:43;6.18;;;3.15;;
44143;SDS011;68165;51.920;4.492;2023-02-28T18:53:10;8.88;;;2.83;;
44143;SDS011;68165;51.920;4.492;2023-02-28T18:55:37;6.68;;;2.90;;
44143;SDS011;68165;51.920;4.492;2023-02-28T18:58:03;8.55;;;3.00;;
44143;SDS011;68165;51.920;4.492;2023-02-28T19:00:29;7.35;;;2.80;;
44143;SDS011;68165;51.920;4.492;2023-02-28T19:02:54;6.50;;;3.03;;
44143;SDS011;68165;51.920;4.492;2023-02-28T19:05:20;9.45;;;3.55;;
44143;SDS011;68165;51.920;4.492;2023-02-28T19:07:45;8.18;;;3.50;;
44143;SDS011;68165;51.920;4.492;2023-02-28T19:10:11;6.55;;;3.22;;
44143;SDS011;68165;51.920;4.492;2023-02-28T19:12:37;10.13;;;3.85;;
44143;SDS011;68165;51.920;4.492;2023-02-28T19:15:06;6.65;;;3.30;;
44143;SDS011;68165;51.920;4.492;2023-02-28T19:17:32;9.23;;;3.75;;
44143;SDS011;68165;51.920;4.492;2023-02-28T19:19:58;8.02;;;3.70;;
44143;SDS011;68165;51.920;4.492;2023-02-28T19:22:23;7.75;;;3.80;;
44143;SDS011;68165;51.920;4.492;2023-02-28T19:24:50;7.22;;;3.60;;
44143;SDS011;68165;51.920;4.492;2023-02-28T19:27:16;9.32;;;3.78;;
44143;SDS011;68165;51.920;4.492;2023-02-28T19:29:46;8.13;;;3.20;;
44143;SDS011;68165;51.920;4.492;2023-02-28T19:32:12;6.05;;;3.25;;
44143;SDS011;68165;51.920;4.492;2023-02-28T19:34:37;7.10;;;3.45;;
44143;SDS011;68165;51.920;4.492;2023-02-28T19:37:03;6.68;;;3.50;;
44143;SDS011;68165;51.920;4.492;2023-02-28T19:39:28;8.45;;;3.58;;
44143;SDS011;68165;51.920;4.492;2023-02-28T19:42:01;7.75;;;3.53;;
44143;SDS011;68165;51.920;4.492;2023-02-28T19:44:27;9.98;;;3.65;;
44143;SDS011;68165;51.920;4.492;2023-02-28T19:46:52;8.25;;;3.85;;
44143;SDS011;68165;51.920;4.492;2023-02-28T19:49:18;11.23;;;3.63;;
44143;SDS011;68165;51.920;4.492;2023-02-28T19:51:43;8.55;;;3.60;;
44143;SDS011;68165;51.920;4.492;2023-02-28T19:54:09;8.88;;;3.95;;
44143;SDS011;68165;51.920;4.492;2023-02-28T19:56:34;11.80;;;3.88;;
44143;SDS011;68165;51.920;4.492;2023-02-28T19:58:59;8.02;;;3.83;;
44143;SDS011;68165;51.920;4.492;2023-02-28T20:01:25;10.95;;;4.32;;
44143;SDS011;68165;51.920;4.492;2023-02-28T20:03:51;7.90;;;3.60;;
44143;SDS011;68165;51.920;4.492;2023-02-28T20:06:17;8.15;;;3.45;;
44143;SDS011;68165;51.920;4.492;2023-02-28T20:08:42;5.93;;;3.67;;
44143;SDS011;68165;51.920;4.492;2023-02-28T20:11:09;6.45;;;3.42;;
44143;SDS011;68165;51.920;4.492;2023-02-28T20:13:36;7.20;;;3.45;;
44143;SDS011;68165;51.920;4.492;2023-02-28T20:16:03;7.40;;;3.72;;
44143;SDS011;68165;51.920;4.492;2023-02-28T20:18:31;8.13;;;3.78;;
44143;SDS011;68165;51.920;4.492;2023-02-28T20:20:57;8.63;;;3.95;;
44143;SDS011;68165;51.920;4.492;2023-02-28T20:23:23;10.82;;;3.97;;
44143;SDS011;68165;51.920;4.492;2023-02-28T20:25:49;8.20;;;3.83;;
44143;SDS011;68165;51.920;4.492;2023-02-28T20:28:15;9.73;;;4.25;;
44143;SDS011;68165;51.920;4.492;2023-02-28T20:30:42;11.27;;;4.85;;
44143;SDS011;68165;51.920;4.492;2023-02-28T20:33:09;11.32;;;4.13;;
44143;SDS011;68165;51.920;4.492;2023-02-28T20:35:36;9.98;;;4.25;;
44143;SDS011;68165;51.920;4.492;2023-02-28T20:38:02;9.45;;;4.65;;